createdAt,value
2022-12-03T00:01:28.034Z,100.00
2022-12-03T00:03:58.154Z,100.00
2022-12-03T00:06:34.214Z,100.00
2022-12-03T00:09:04.637Z,99.63
2022-12-03T00:11:34.714Z,98.98
2022-12-03T00:14:07.410Z,98.91
2022-12-03T00:16:37.198Z,98.02
2022-12-03T00:19:07.781Z,97.99
2022-12-03T00:21:37.663Z,97.38
2022-12-03T00:24:08.168Z,97.07
2022-12-03T00:26:38.070Z,97.17
2022-12-03T00:29:11.346Z,97.07
2022-12-03T00:31:42.214Z,97.02
2022-12-03T00:34:12.087Z,96.10
2022-12-03T00:36:41.913Z,95.67
2022-12-03T00:39:11.670Z,96.04
2022-12-03T00:41:41.425Z,95.46
2022-12-03T00:44:13.871Z,96.35
2022-12-03T00:46:43.734Z,96.32
2022-12-03T00:49:13.563Z,96.68
2022-12-03T00:51:43.348Z,96.59
2022-12-03T00:54:13.194Z,96.41
2022-12-03T00:56:42.996Z,96.27
2022-12-03T00:59:15.378Z,95.59
2022-12-03T01:01:45.269Z,94.67
2022-12-03T01:04:15.154Z,95.50
2022-12-03T01:06:45.031Z,95.91
2022-12-03T01:09:15.138Z,96.16
2022-12-03T01:11:44.963Z,96.93
2022-12-03T01:14:19.979Z,96.28
2022-12-03T01:16:51.462Z,96.88
2022-12-03T01:19:21.907Z,97.08
2022-12-03T01:21:53.600Z,97.07
2022-12-03T01:24:23.551Z,96.18
2022-12-03T01:26:53.412Z,96.70
2022-12-03T01:29:25.832Z,95.59
2022-12-03T01:32:08.354Z,95.82
2022-12-03T01:34:38.130Z,95.65
2022-12-03T01:37:07.971Z,95.91
2022-12-03T01:39:37.779Z,95.35
2022-12-03T01:42:08.317Z,94.67
2022-12-03T01:44:47.497Z,94.06
2022-12-03T01:47:20.536Z,94.62
2022-12-03T01:49:53.867Z,95.75
2022-12-03T01:52:27.513Z,94.74
2022-12-03T01:54:59.812Z,94.38
2022-12-03T01:57:33.097Z,95.07
2022-12-03T02:00:05.988Z,94.50
2022-12-03T02:02:36.144Z,94.48
2022-12-03T02:05:17.949Z,95.25
2022-12-03T02:07:47.844Z,96.07
2022-12-03T02:10:21.166Z,95.80
2022-12-03T02:12:55.399Z,95.28
2022-12-03T02:15:28.516Z,95.16
2022-12-03T02:17:58.815Z,95.96
2022-12-03T02:20:29.122Z,96.32
2022-12-03T02:23:03.999Z,96.25
2022-12-03T02:25:38.583Z,97.01
2022-12-03T02:28:10.673Z,96.58
2022-12-03T02:30:40.796Z,96.55
2022-12-03T02:33:10.755Z,97.31
2022-12-03T02:35:41.971Z,96.73
2022-12-03T02:38:16.507Z,97.13
2022-12-03T02:40:52.255Z,97.07
2022-12-03T02:43:21.867Z,97.69
2022-12-03T02:45:54.886Z,97.92
2022-12-03T02:48:28.437Z,97.77
2022-12-03T02:51:00.604Z,98.77
2022-12-03T02:53:33.895Z,98.54
2022-12-03T02:56:08.423Z,98.81
2022-12-03T02:58:38.611Z,98.53
2022-12-03T03:01:08.999Z,98.32
2022-12-03T03:03:40.987Z,99.48
2022-12-03T03:06:12.237Z,99.35
2022-12-03T03:08:44.305Z,99.89
2022-12-03T03:11:16.694Z,99.48
2022-12-03T03:13:46.730Z,100.00
2022-12-03T03:16:16.765Z,99.80
2022-12-03T03:18:46.682Z,100.00
2022-12-03T03:21:16.727Z,100.00
2022-12-03T03:23:46.532Z,100.00
2022-12-03T03:26:19.055Z,100.00
2022-12-03T03:28:53.162Z,100.00
2022-12-03T03:31:26.159Z,100.00
2022-12-03T03:33:56.069Z,100.00
2022-12-03T03:36:26.490Z,100.00
2022-12-03T03:38:56.348Z,100.00
2022-12-03T03:41:29.521Z,100.00
2022-12-03T03:43:59.754Z,100.00
2022-12-03T03:46:33.272Z,100.00
2022-12-03T03:49:03.265Z,100.00
2022-12-03T03:51:33.470Z,100.00
2022-12-03T03:54:05.208Z,100.00
2022-12-03T03:56:38.510Z,100.00
2022-12-03T03:59:08.536Z,100.00
2022-12-03T04:01:39.157Z,100.00
2022-12-03T04:04:16.105Z,100.00
2022-12-03T04:06:45.965Z,100.00
2022-12-03T04:09:15.763Z,100.00
2022-12-03T04:12:00.567Z,100.00
2022-12-03T04:14:30.398Z,100.00
2022-12-03T04:17:00.292Z,100.00
2022-12-03T04:19:30.199Z,100.00
2022-12-03T04:22:13.379Z,100.00
2022-12-03T04:24:43.542Z,100.00
2022-12-03T04:27:28.342Z,100.00
2022-12-03T04:29:58.158Z,100.00
2022-12-03T04:32:40.370Z,100.00
2022-12-03T04:35:24.168Z,100.00
2022-12-03T04:37:54.067Z,100.00
2022-12-03T04:40:36.313Z,100.00
2022-12-03T04:43:08.802Z,100.00
2022-12-03T04:45:38.661Z,100.00
2022-12-03T04:48:09.021Z,100.00
2022-12-03T04:50:38.919Z,100.00
2022-12-03T04:53:08.744Z,100.00
2022-12-03T04:55:38.665Z,100.00
2022-12-03T04:58:12.285Z,100.00
2022-12-03T05:00:42.134Z,100.00
2022-12-03T05:03:12.003Z,100.00
2022-12-03T05:05:41.820Z,100.00
2022-12-03T05:08:11.723Z,100.00
2022-12-03T05:10:41.598Z,100.00
2022-12-03T05:13:14.014Z,100.00
2022-12-03T05:15:44.205Z,100.00
2022-12-03T05:18:14.013Z,100.00
2022-12-03T05:20:52.983Z,100.00
2022-12-03T05:23:23.945Z,100.00
2022-12-03T05:25:53.798Z,100.00
2022-12-03T05:28:26.226Z,100.00
2022-12-03T05:30:56.208Z,100.00
2022-12-03T05:33:26.030Z,100.00
2022-12-03T05:35:55.837Z,100.00
2022-12-03T05:38:25.739Z,100.00
2022-12-03T05:40:55.643Z,100.00
2022-12-03T05:43:25.959Z,100.00
2022-12-03T05:45:56.101Z,100.00
2022-12-03T05:48:25.946Z,100.00
2022-12-03T05:50:55.806Z,100.00
2022-12-03T05:53:25.622Z,99.69
2022-12-03T05:55:55.432Z,99.42
2022-12-03T05:58:27.842Z,99.23
2022-12-03T06:00:57.695Z,98.62
2022-12-03T06:03:27.648Z,98.72
2022-12-03T06:05:57.575Z,98.46
2022-12-03T06:08:29.245Z,99.43
2022-12-03T06:10:59.083Z,99.23
2022-12-03T06:13:31.487Z,98.99
2022-12-03T06:16:01.385Z,99.09
2022-12-03T06:18:31.268Z,98.61
2022-12-03T06:21:01.071Z,98.76
2022-12-03T06:23:30.983Z,98.17
2022-12-03T06:26:00.780Z,97.88
2022-12-03T06:28:33.154Z,96.58
2022-12-03T06:31:02.986Z,95.82
2022-12-03T06:33:32.831Z,96.15
2022-12-03T06:36:02.732Z,96.70
2022-12-03T06:38:32.509Z,95.43
2022-12-03T06:41:02.533Z,96.30
2022-12-03T06:43:34.933Z,95.88
2022-12-03T06:46:04.962Z,94.94
2022-12-03T06:48:34.864Z,94.31
2022-12-03T06:51:04.697Z,94.96
2022-12-03T06:53:34.479Z,95.40
2022-12-03T06:56:04.299Z,95.68
2022-12-03T06:58:36.689Z,95.49
2022-12-03T07:01:06.761Z,95.84
2022-12-03T07:03:36.582Z,95.51
2022-12-03T07:06:06.626Z,95.71
2022-12-03T07:08:36.455Z,94.95
2022-12-03T07:11:26.523Z,94.96
2022-12-03T07:14:04.733Z,94.49
2022-12-03T07:16:36.260Z,94.45
2022-12-03T07:19:06.924Z,94.59
2022-12-03T07:21:37.062Z,94.30
2022-12-03T07:24:07.270Z,94.13
2022-12-03T07:26:37.120Z,94.47
2022-12-03T07:29:11.702Z,94.86
2022-12-03T07:31:44.936Z,95.37
2022-12-03T07:34:14.854Z,95.32
2022-12-03T07:36:45.027Z,95.48
2022-12-03T07:39:16.233Z,95.27
2022-12-03T07:41:48.093Z,96.16
2022-12-03T07:44:20.584Z,95.69
2022-12-03T07:46:52.552Z,96.17
2022-12-03T07:49:22.458Z,95.89
2022-12-03T07:51:57.228Z,95.37
2022-12-03T07:54:32.878Z,95.76
2022-12-03T07:57:02.690Z,95.36
2022-12-03T07:59:35.217Z,95.05
2022-12-03T08:02:05.173Z,95.33
2022-12-03T08:04:35.331Z,95.52
2022-12-03T08:07:05.545Z,95.53
2022-12-03T08:09:35.444Z,95.82
2022-12-03T08:12:15.711Z,95.88
2022-12-03T08:14:49.286Z,96.57
2022-12-03T08:17:21.405Z,96.99
2022-12-03T08:19:52.806Z,96.69
2022-12-03T08:22:22.671Z,97.23
2022-12-03T08:24:52.878Z,95.80
2022-12-03T08:27:23.019Z,96.76
2022-12-03T08:30:08.223Z,96.17
2022-12-03T08:32:38.142Z,95.92
2022-12-03T08:35:14.236Z,95.57
2022-12-03T08:37:44.448Z,95.74
2022-12-03T08:40:24.806Z,95.84
2022-12-03T08:42:54.812Z,96.45
2022-12-03T08:45:43.746Z,95.53
2022-12-03T08:48:27.274Z,95.54
2022-12-03T08:50:59.599Z,96.37
2022-12-03T08:53:38.367Z,95.53
2022-12-03T08:56:22.158Z,96.06
2022-12-03T08:58:55.117Z,95.64
2022-12-03T09:01:35.806Z,95.11
2022-12-03T09:04:22.664Z,95.32
2022-12-03T09:06:53.210Z,93.70
2022-12-03T09:09:23.442Z,94.49
2022-12-03T09:11:54.001Z,95.11
2022-12-03T09:14:26.270Z,95.37
2022-12-03T09:16:59.831Z,95.11
2022-12-03T09:19:32.750Z,94.78
2022-12-03T09:22:02.658Z,94.49
2022-12-03T09:24:35.922Z,93.77
2022-12-03T09:27:05.841Z,93.89
2022-12-03T09:29:35.714Z,93.85
2022-12-03T09:32:09.817Z,94.62
2022-12-03T09:34:42.436Z,94.37
2022-12-03T09:37:12.670Z,94.53
2022-12-03T09:39:42.560Z,93.75
2022-12-03T09:42:12.818Z,93.81
2022-12-03T09:44:43.093Z,93.99
2022-12-03T09:47:15.780Z,94.64
2022-12-03T09:49:46.020Z,93.84
2022-12-03T09:52:23.326Z,94.58
2022-12-03T09:54:56.112Z,95.07
2022-12-03T09:57:26.537Z,94.92
2022-12-03T09:59:56.511Z,95.28
2022-12-03T10:02:34.367Z,94.66
2022-12-03T10:05:04.561Z,95.08
2022-12-03T10:07:35.556Z,94.71
2022-12-03T10:10:05.635Z,95.13
2022-12-03T10:12:35.543Z,94.43
2022-12-03T10:15:05.573Z,93.68
2022-12-03T10:17:38.076Z,93.48
2022-12-03T10:20:11.112Z,94.31
2022-12-03T10:22:41.033Z,94.35
2022-12-03T10:25:13.784Z,94.33
2022-12-03T10:27:45.020Z,94.43
2022-12-03T10:30:19.972Z,94.50
2022-12-03T10:32:53.763Z,95.22
2022-12-03T10:35:26.506Z,95.19
2022-12-03T10:38:00.935Z,94.75
2022-12-03T10:40:32.806Z,93.94
2022-12-03T10:43:23.043Z,93.60
2022-12-03T10:45:56.728Z,94.21
2022-12-03T10:48:32.676Z,94.16
2022-12-03T10:51:07.078Z,94.78
2022-12-03T10:53:39.178Z,93.96
2022-12-03T10:56:14.981Z,93.26
2022-12-03T10:58:46.045Z,94.21
2022-12-03T11:01:19.228Z,94.08
2022-12-03T11:03:53.098Z,94.50
2022-12-03T11:06:25.460Z,94.16
2022-12-03T11:09:01.380Z,94.83
2022-12-03T11:11:34.304Z,94.79
2022-12-03T11:14:08.561Z,94.23
2022-12-03T11:17:11.578Z,93.72
2022-12-03T11:19:52.181Z,93.62
2022-12-03T11:22:43.216Z,93.92
2022-12-03T11:25:57.813Z,93.66
2022-12-03T11:28:56.451Z,93.99
2022-12-03T11:31:42.281Z,93.66
2022-12-03T11:34:50.517Z,94.00
2022-12-03T11:37:28.918Z,93.97
2022-12-03T11:40:20.943Z,93.64
2022-12-03T11:42:51.869Z,93.25
2022-12-03T11:45:33.794Z,92.75
2022-12-03T11:48:08.543Z,93.29
2022-12-03T11:50:40.607Z,93.05
2022-12-03T11:53:23.398Z,92.73
2022-12-03T11:56:06.443Z,91.29
2022-12-03T11:58:38.600Z,91.83
2022-12-03T12:01:10.067Z,91.69
2022-12-03T12:03:46.677Z,92.51
2022-12-03T12:06:20.918Z,92.51
2022-12-03T12:09:04.049Z,91.33
2022-12-03T12:11:36.209Z,91.03
2022-12-03T12:14:10.851Z,91.92
2022-12-03T12:16:50.622Z,91.61
2022-12-03T12:19:41.269Z,90.89
2022-12-03T12:22:33.150Z,91.83
2022-12-03T12:25:24.323Z,93.05
2022-12-03T12:27:55.287Z,92.17
2022-12-03T12:30:27.291Z,91.84
2022-12-03T12:33:10.552Z,92.15
2022-12-03T12:35:40.412Z,93.06
2022-12-03T12:38:20.166Z,91.83
2022-12-03T12:40:57.752Z,91.46
2022-12-03T12:43:29.641Z,91.55
2022-12-03T12:46:24.965Z,90.98
2022-12-03T12:48:59.322Z,91.46
2022-12-03T12:51:29.510Z,92.01
2022-12-03T12:54:00.551Z,91.42
2022-12-03T12:56:34.283Z,91.59
2022-12-03T12:59:14.059Z,92.34
2022-12-03T13:01:46.248Z,92.72
2022-12-03T13:04:19.262Z,92.48
2022-12-03T13:06:50.979Z,91.93
2022-12-03T13:09:24.179Z,91.52
2022-12-03T13:12:00.032Z,91.75
2022-12-03T13:14:34.443Z,91.63
2022-12-03T13:17:13.691Z,91.74
2022-12-03T13:19:49.426Z,91.45
2022-12-03T13:22:34.378Z,91.83
2022-12-03T13:25:50.468Z,91.08
2022-12-03T13:28:16.623Z,90.53
2022-12-03T13:31:24.677Z,90.50
2022-12-03T13:33:57.006Z,90.18
2022-12-03T13:36:42.033Z,90.34
2022-12-03T13:39:18.967Z,90.55
2022-12-03T13:42:01.770Z,90.78
2022-12-03T13:44:40.485Z,90.86
2022-12-03T13:47:16.232Z,90.54
2022-12-03T13:49:50.811Z,90.50
2022-12-03T13:52:23.975Z,90.17
2022-12-03T13:54:55.654Z,90.17
2022-12-03T13:57:25.929Z,89.68
2022-12-03T13:59:58.365Z,89.63
2022-12-03T14:02:28.268Z,89.05
2022-12-03T14:05:00.509Z,88.64
2022-12-03T14:07:34.002Z,88.64
2022-12-03T14:10:03.936Z,87.65
2022-12-03T14:12:36.306Z,87.60
2022-12-03T14:15:10.802Z,87.88
2022-12-03T14:17:40.637Z,87.86
2022-12-03T14:20:11.766Z,88.62
2022-12-03T14:22:44.963Z,88.47
2022-12-03T14:25:18.033Z,87.48
2022-12-03T14:27:48.934Z,87.78
2022-12-03T14:30:24.663Z,88.69
2022-12-03T14:32:55.582Z,88.98
2022-12-03T14:35:29.015Z,88.40
2022-12-03T14:37:59.937Z,88.66
2022-12-03T14:40:32.901Z,88.95
2022-12-03T14:43:08.715Z,89.00
2022-12-03T14:45:41.230Z,87.86
2022-12-03T14:48:14.939Z,87.72
2022-12-03T14:50:47.986Z,88.00
2022-12-03T14:53:26.891Z,88.03
2022-12-03T14:56:01.011Z,88.22
2022-12-03T14:58:30.863Z,88.58
2022-12-03T15:01:04.358Z,88.82
2022-12-03T15:03:34.294Z,87.88
2022-12-03T15:06:09.401Z,87.64
2022-12-03T15:08:39.300Z,87.82
2022-12-03T15:11:10.263Z,88.57
2022-12-03T15:13:42.140Z,88.59
2022-12-03T15:16:14.615Z,88.81
2022-12-03T15:18:44.435Z,89.04
2022-12-03T15:21:16.329Z,88.50
2022-12-03T15:23:46.203Z,88.53
2022-12-03T15:26:19.963Z,87.48
2022-12-03T15:28:49.883Z,87.57
2022-12-03T15:31:22.378Z,87.50
2022-12-03T15:33:55.888Z,88.29
2022-12-03T15:36:26.726Z,88.60
2022-12-03T15:38:57.661Z,88.95
2022-12-03T15:41:29.373Z,88.92
2022-12-03T15:44:01.552Z,87.91
2022-12-03T15:46:36.242Z,88.14
2022-12-03T15:49:06.207Z,89.07
2022-12-03T15:51:39.927Z,88.99
2022-12-03T15:54:11.803Z,89.93
2022-12-03T15:56:47.004Z,89.16
2022-12-03T15:59:16.931Z,89.66
2022-12-03T16:01:52.709Z,88.96
2022-12-03T16:04:22.657Z,88.71
2022-12-03T16:06:53.577Z,89.21
2022-12-03T16:09:27.802Z,89.69
2022-12-03T16:11:58.834Z,89.65
2022-12-03T16:14:31.915Z,89.44
2022-12-03T16:17:05.376Z,88.72
2022-12-03T16:19:37.278Z,89.95
2022-12-03T16:22:10.991Z,89.36
2022-12-03T16:24:40.918Z,89.10
2022-12-03T16:27:10.872Z,89.85
2022-12-03T16:29:41.746Z,89.94
2022-12-03T16:32:14.187Z,89.83
2022-12-03T16:34:46.195Z,89.62
2022-12-03T16:37:15.999Z,89.53
2022-12-03T16:39:50.707Z,88.95
2022-12-03T16:42:20.715Z,89.08
2022-12-03T16:45:02.964Z,89.22
2022-12-03T16:47:38.187Z,89.25
2022-12-03T16:50:20.657Z,89.61
2022-12-03T16:52:55.407Z,92.84
2022-12-03T16:55:25.432Z,89.64
2022-12-03T16:57:55.246Z,89.79
2022-12-03T17:00:26.041Z,89.52
2022-12-03T17:02:59.607Z,90.20
2022-12-03T17:05:29.562Z,90.43
2022-12-03T17:08:03.176Z,90.38
2022-12-03T17:10:33.253Z,90.35
2022-12-03T17:13:10.944Z,89.78
2022-12-03T17:15:42.822Z,90.13
2022-12-03T17:18:15.283Z,90.27
2022-12-03T17:20:45.329Z,91.10
2022-12-03T17:23:17.700Z,91.09
2022-12-03T17:25:47.677Z,91.07
2022-12-03T17:28:17.581Z,90.64
2022-12-03T17:30:47.510Z,90.31
2022-12-03T17:33:23.631Z,90.75
2022-12-03T17:35:54.500Z,91.34
2022-12-03T17:38:24.353Z,90.94
2022-12-03T17:40:54.240Z,90.41
2022-12-03T17:43:24.165Z,90.35
2022-12-03T17:45:54.123Z,90.78
2022-12-03T17:48:26.664Z,91.35
2022-12-03T17:50:58.124Z,91.17
2022-12-03T17:53:30.517Z,91.18
2022-12-03T17:56:00.382Z,92.22
2022-12-03T17:58:30.760Z,91.97
2022-12-03T18:01:03.233Z,91.43
2022-12-03T18:03:40.034Z,91.30
2022-12-03T18:06:10.813Z,91.38
2022-12-03T18:08:43.974Z,90.86
2022-12-03T18:11:19.044Z,91.99
2022-12-03T18:13:50.069Z,92.13
2022-12-03T18:16:23.228Z,91.53
2022-12-03T18:18:58.266Z,91.55
2022-12-03T18:21:30.734Z,92.03
2022-12-03T18:24:02.332Z,91.86
2022-12-03T18:26:33.193Z,91.23
2022-12-03T18:29:03.110Z,91.06
2022-12-03T18:31:34.142Z,90.58
2022-12-03T18:34:12.565Z,90.57
2022-12-03T18:36:42.916Z,91.24
2022-12-03T18:39:26.291Z,91.06
2022-12-03T18:42:00.717Z,90.84
2022-12-03T18:44:36.851Z,91.14
2022-12-03T18:47:14.015Z,91.52
2022-12-03T18:49:49.893Z,91.09
2022-12-03T18:52:22.021Z,91.23
2022-12-03T18:54:52.013Z,91.22
2022-12-03T18:57:22.938Z,91.06
2022-12-03T18:59:56.340Z,90.20
2022-12-03T19:03:00.714Z,90.22
2022-12-03T19:05:23.627Z,89.53
2022-12-03T19:07:55.322Z,90.19
2022-12-03T19:10:28.043Z,91.30
2022-12-03T19:12:57.964Z,90.89
2022-12-03T19:15:28.898Z,91.00
2022-12-03T19:17:58.665Z,90.70
2022-12-03T19:20:31.120Z,90.45
2022-12-03T19:23:00.994Z,90.85
2022-12-03T19:25:33.984Z,91.10
2022-12-03T19:28:04.806Z,91.41
2022-12-03T19:30:35.641Z,91.74
2022-12-03T19:33:05.480Z,92.16
2022-12-03T19:35:44.404Z,92.00
2022-12-03T19:38:18.027Z,91.80
2022-12-03T19:40:47.950Z,91.80
2022-12-03T19:43:17.872Z,91.35
2022-12-03T19:45:47.765Z,90.97
2022-12-03T19:48:17.645Z,92.14
2022-12-03T19:51:13.270Z,91.87
2022-12-03T19:53:45.960Z,90.75
2022-12-03T19:56:18.274Z,91.47
2022-12-03T19:58:49.403Z,91.34
2022-12-03T20:01:21.023Z,91.68
2022-12-03T20:03:52.622Z,91.85
2022-12-03T20:06:27.213Z,91.08
2022-12-03T20:08:58.835Z,91.86
2022-12-03T20:11:30.661Z,91.67
2022-12-03T20:14:03.623Z,91.86
2022-12-03T20:16:33.695Z,92.22
2022-12-03T20:19:06.482Z,92.31
2022-12-03T20:21:40.774Z,91.69
2022-12-03T20:24:12.659Z,92.22
2022-12-03T20:26:43.462Z,92.90
2022-12-03T20:29:13.414Z,92.64
2022-12-03T20:31:43.485Z,92.42
2022-12-03T20:34:14.214Z,92.02
2022-12-03T20:36:46.887Z,92.09
2022-12-03T20:39:16.772Z,92.33
2022-12-03T20:41:46.602Z,92.35
2022-12-03T20:44:16.581Z,92.50
2022-12-03T20:46:46.436Z,92.12
2022-12-03T20:49:16.357Z,92.33
2022-12-03T20:51:48.893Z,92.65
2022-12-03T20:54:18.832Z,92.58
2022-12-03T20:56:52.644Z,92.41
2022-12-03T20:59:22.654Z,92.64
2022-12-03T21:01:53.661Z,93.03
2022-12-03T21:04:23.723Z,93.21
2022-12-03T21:06:59.637Z,92.36
2022-12-03T21:09:29.502Z,92.38
2022-12-03T21:11:59.301Z,92.21
2022-12-03T21:14:29.242Z,92.43
2022-12-03T21:17:08.508Z,92.20
2022-12-03T21:19:39.059Z,91.64
2022-12-03T21:22:14.619Z,91.85
2022-12-03T21:24:45.291Z,91.56
2022-12-03T21:27:21.167Z,91.67
2022-12-03T21:29:51.843Z,91.94
2022-12-03T21:32:21.993Z,91.83
2022-12-03T21:34:51.921Z,92.58
2022-12-03T21:37:24.455Z,92.77
2022-12-03T21:39:54.491Z,92.85
2022-12-03T21:42:35.417Z,92.75
2022-12-03T21:45:08.203Z,92.57
2022-12-03T21:47:38.157Z,92.39
2022-12-03T21:50:11.623Z,91.65
2022-12-03T21:52:44.436Z,91.59
2022-12-03T21:55:14.263Z,91.17
2022-12-03T21:57:45.149Z,91.61
2022-12-03T22:00:16.623Z,91.20
2022-12-03T22:02:46.717Z,91.76
2022-12-03T22:05:16.698Z,91.43
2022-12-03T22:07:49.345Z,91.21
2022-12-03T22:10:19.296Z,91.34
2022-12-03T22:12:49.193Z,91.12
2022-12-03T22:15:19.748Z,91.88
2022-12-03T22:17:50.141Z,91.90
2022-12-03T22:20:21.360Z,91.92
2022-12-03T22:22:53.847Z,90.59
2022-12-03T22:25:23.759Z,91.01
2022-12-03T22:27:53.722Z,91.32
2022-12-03T22:30:23.606Z,91.42
2022-12-03T22:32:54.460Z,91.91
2022-12-03T22:35:24.398Z,91.93
2022-12-03T22:37:56.911Z,92.09
2022-12-03T22:40:26.773Z,92.13
2022-12-03T22:42:57.599Z,92.39
2022-12-03T22:45:27.402Z,92.70
2022-12-03T22:47:57.302Z,92.89
2022-12-03T22:50:27.211Z,92.88
2022-12-03T22:52:59.780Z,93.08
2022-12-03T22:55:30.633Z,93.16
2022-12-03T22:58:00.452Z,92.93
2022-12-03T23:00:32.829Z,92.52
2022-12-03T23:03:02.782Z,92.54
2022-12-03T23:05:38.544Z,92.31
2022-12-03T23:08:15.318Z,92.68
2022-12-03T23:10:47.647Z,93.37
2022-12-03T23:13:17.993Z,92.77
2022-12-03T23:15:49.663Z,92.83
2022-12-03T23:18:20.163Z,93.13
2022-12-03T23:20:51.646Z,93.62
2022-12-03T23:23:28.632Z,94.52
2022-12-03T23:26:02.346Z,95.20
2022-12-03T23:28:34.297Z,95.30
2022-12-03T23:31:04.319Z,95.86
2022-12-03T23:33:38.434Z,95.79
2022-12-03T23:36:09.300Z,95.91
2022-12-03T23:38:41.981Z,95.72
2022-12-03T23:41:14.152Z,95.28
2022-12-03T23:43:45.594Z,94.95
2022-12-03T23:46:17.873Z,95.30
2022-12-03T23:48:51.283Z,96.21
2022-12-03T23:51:23.865Z,96.58
2022-12-03T23:53:57.744Z,97.02
2022-12-03T23:56:30.362Z,96.55
2022-12-03T23:59:01.742Z,95.95
